Flight Track Log - Related Links

Times and Time Zones

All times are in EDT time to prevent confusion due to time zone crossing. See the SWA2336 flight status page for this flight to view local times or setup timezone preferences in your user account.

Time Position Orientation Groundspeed Altitude Reporting Facility
EDT Latitude Longitude Course Direction KTS MPH feet Rate Location/Type
Sat 06:22:13 PM 36.0761 -115.1683 269° West 169 194 3,200  Level Los Angeles Center
Sat 06:23:08 PM 36.0750 -115.2325 269° West 221 254 4,500 1,831 Climbing Los Angeles Center
Sat 06:24:11 PM 36.0164 -115.2797 213° Southwest 267 307 6,800 1,392 Climbing Los Angeles Center
Sat 06:25:13 PM 35.9397 -115.3081 197° South 281 323 7,400 1,935 Climbing Los Angeles Center
Sat 06:26:15 PM 35.8592 -115.3139 183° South 285 328 10,800 3,242 Climbing Los Angeles Center
Sat 06:27:17 PM 35.7706 -115.3058 176° South 303 349 14,100 3,048 Climbing Los Angeles Center
Sat 06:28:19 PM 35.6542 -115.2933 175° South 340 391 17,100 2,878 Climbing Los Angeles Center
Sat 06:29:20 PM 35.5444 -115.2994 183° South 383 441 20,000 2,634 Climbing Los Angeles Center
Sat 06:30:22 PM 35.4317 -115.3031 181° South 400 460 22,500 2,371 Climbing Los Angeles Center
Sat 06:31:24 PM 35.3153 -115.3328 192° South 422 486 24,900 2,613 Climbing Los Angeles Center
Sat 06:32:26 PM 35.2019 -115.3719 196° South 421 484 27,900 1,500 Climbing Los Angeles Center
Sat 06:33:28 PM 35.0928 -115.4094 196° South 426 490 28,000 48 Climbing Los Angeles Center
Sat 06:34:30 PM 34.9428 -115.4619 196° South 456 525 28,000  Level Los Angeles Center
Sat 06:35:31 PM 34.8094 -115.5069 195° South 468 539 28,000  Level Los Angeles Center
Sat 06:36:33 PM 34.6853 -115.5497 196° South 465 535 28,000  Level Los Angeles Center
Sat 06:37:35 PM 34.5678 -115.5886 195° South 462 532 28,000  Level Los Angeles Center
Sat 06:38:37 PM 34.4439 -115.6314 196° South 462 532 28,000  Level Los Angeles Center
Sat 06:39:39 PM 34.3108 -115.6750 195° South 466 536 28,000  Level Los Angeles Center
Sat 06:40:40 PM 34.1864 -115.7161 195° South 466 536 28,000  Level Los Angeles Center
Sat 06:41:42 PM 34.0625 -115.7583 196° South 464 534 28,000  Level Los Angeles Center
Sat 06:42:44 PM 33.9381 -115.8006 196° South 465 535 28,000  Level Los Angeles Center
Sat 06:43:46 PM 33.7892 -115.8519 196° South 464 534 28,000 -194 Level Los Angeles Center
Sat 06:44:48 PM 33.6642 -115.8933 195° South 467 537 27,600 -1,073 Descending Los Angeles Center
Sat 06:45:49 PM 33.5492 -115.9328 196° South 434 499 25,800 -1,854 Descending Los Angeles Center
Sat 06:46:51 PM 33.4692 -116.0236 223° Southwest 406 467 23,800 -2,129 Descending Los Angeles Center
Sat 06:47:53 PM 33.3878 -116.1111 222° Southwest 397 457 21,400 -2,177 Descending Los Angeles Center
Sat 06:48:55 PM 33.2989 -116.1889 216° Southwest 397 457 19,300 -1,984 Descending Los Angeles Center
Sat 06:49:57 PM 33.1936 -116.2700 213° Southwest 378 435 17,300 -1,805 Descending Los Angeles Center
Sat 06:50:58 PM 33.1042 -116.3258 208° Southwest 365 420 15,600 -1,610 Descending Los Angeles Center
Sat 06:52:00 PM 33.0053 -116.3650 198° South 354 407 14,000 -1,306 Descending Los Angeles Center
Sat 06:53:02 PM 32.9183 -116.4036 200° South 342 394 12,900 -1,258 Descending Los Angeles Center
Sat 06:54:04 PM 32.8717 -116.4869 236° Southwest 309 356 11,400 -1,512 Descending Los Angeles Center
Sat 06:55:05 PM 32.8294 -116.5831 242° Southwest 308 354 9,800 -1,512 Descending Los Angeles Center
Sat 06:56:07 PM 32.7903 -116.6722 242° Southwest 306 352 8,300 -1,452 Descending Los Angeles Center
Sat 06:57:09 PM 32.7511 -116.7589 242° Southwest 302 348 6,800 -1,220 Descending Los Angeles Center
Sat 06:58:10 PM 32.7147 -116.8411 242° Southwest 288 331 5,800 -976 Descending Los Angeles Center
Sat 06:59:12 PM 32.6806 -116.9147 241° Southwest 264 304 4,800 -1,157 Descending Los Angeles Center
Sat 06:59:33 PM 32.6667 -116.9500 245° Southwest 248 285 4,200 -1,440 Descending Southern California TRACON
Sat 07:00:27 PM 32.6833 -117.0167 287° West 214 246 3,000 -1,200 Descending Southern California TRACON
Sat 07:01:33 PM 32.7000 -117.0833 287° West 189 217 1,800 -1,000 Descending Southern California TRACON
Sat 07:02:27 PM 32.7167 -117.1333 292° West 149 171 1,000 -792 Descending Southern California TRACON
Sat 07:03:19 PM 32.7261 -117.1600 293° West 142 163 400 -692 Descending Los Angeles Center
Sat 07:06:00 PM 32.7333 -117.1833 281° West  Level FlightAware Approximate

Login

Don't have an account? Register now (free) for customized features, flight alerts, and more!